Terminal Aerodrome Forecast
Issued by NWS Wilmington, NC

Home | Current Version | Previous Version | Text Only | Print | Product List | Glossary On
Versions: 1 2 3 4 5 6 7 8 9 10 11 12 13 14 15 16 17 18 19 20 21 22
092
FTUS42 KILM 061733
TAFFLO
TAF
KFLO 061733Z 0618/0718 05010KT P6SM SCT060 SCT100
     FM062300 03011KT P6SM VCSH SCT035 BKN050
     FM070300 02011G22KT P6SM -RA SCT025 OVC050
     FM071100 02015G22KT 4SM -RASN BR SCT015 OVC025
     FM071600 02014G20KT 6SM -RA BR OVC015=

USA.gov is the U.S. government's official web portal to all federal, state and local government web resources and services.